createdAt,value
2022-08-03T00:03:49.017Z,38.92
2022-08-03T00:08:42.477Z,38.98
2022-08-03T00:13:36.378Z,39.04
2022-08-03T00:18:29.846Z,39.06
2022-08-03T00:23:24.809Z,38.71
2022-08-03T00:28:17.976Z,38.56
2022-08-03T00:33:12.725Z,38.88
2022-08-03T00:38:08.789Z,38.51
2022-08-03T00:43:06.937Z,38.56
2022-08-03T00:48:01.944Z,38.65
2022-08-03T00:52:59.123Z,38.60
2022-08-03T00:57:52.571Z,38.36
2022-08-03T01:02:45.941Z,38.09
2022-08-03T01:07:59.994Z,38.34
2022-08-03T01:14:00.961Z,38.33
2022-08-03T01:19:31.476Z,38.08
2022-08-03T01:24:49.656Z,38.13
2022-08-03T01:29:50.580Z,37.90
2022-08-03T01:34:53.848Z,37.76
2022-08-03T01:39:48.095Z,37.67
2022-08-03T01:44:45.913Z,37.62
2022-08-03T01:49:45.941Z,37.98
2022-08-03T01:54:44.341Z,38.08
2022-08-03T01:59:40.125Z,37.66
2022-08-03T02:04:34.844Z,37.70
2022-08-03T02:09:30.200Z,37.77
2022-08-03T02:14:24.761Z,37.43
2022-08-03T02:19:19.097Z,37.39
2022-08-03T02:24:11.974Z,37.29
2022-08-03T02:29:12.796Z,36.93
2022-08-03T02:34:13.197Z,37.08
2022-08-03T02:39:08.853Z,37.27
2022-08-03T02:44:08.468Z,36.95
2022-08-03T02:49:50.776Z,37.17
2022-08-03T02:54:19.356Z,37.21
2022-08-03T02:59:14.774Z,37.87
2022-08-03T03:04:09.023Z,37.77
2022-08-03T03:09:03.286Z,37.79
2022-08-03T03:13:58.356Z,38.26
2022-08-03T03:18:53.128Z,38.30
2022-08-03T03:23:47.092Z,38.18
2022-08-03T03:28:40.529Z,37.91
2022-08-03T03:33:38.636Z,37.80
2022-08-03T03:38:33.845Z,37.77
2022-08-03T03:43:27.385Z,37.84
2022-08-03T03:48:25.716Z,37.72
2022-08-03T03:53:19.905Z,38.11
2022-08-03T03:58:14.037Z,38.00
2022-08-03T04:03:07.701Z,38.10
2022-08-03T04:08:24.359Z,38.21
2022-08-03T04:13:19.347Z,38.02
2022-08-03T04:18:19.978Z,38.41
2022-08-03T04:23:15.569Z,37.89
2022-08-03T04:28:30.835Z,37.94
2022-08-03T04:33:25.262Z,38.09
2022-08-03T04:38:25.723Z,37.82
2022-08-03T04:43:20.425Z,38.02
2022-08-03T04:48:19.191Z,37.97
2022-08-03T04:53:13.045Z,37.83
2022-08-03T04:58:07.253Z,37.79
2022-08-03T05:03:01.237Z,38.04
2022-08-03T05:07:56.724Z,37.96
2022-08-03T05:12:52.158Z,38.12
2022-08-03T05:17:45.400Z,38.49
2022-08-03T05:22:38.236Z,38.16
2022-08-03T05:27:31.945Z,37.98
2022-08-03T05:32:26.039Z,38.20
2022-08-03T05:37:19.669Z,37.90
2022-08-03T05:42:16.454Z,38.33
2022-08-03T05:47:10.618Z,38.19
2022-08-03T05:52:21.326Z,37.91
2022-08-03T05:57:15.885Z,38.10
2022-08-03T06:02:09.939Z,37.91
2022-08-03T06:07:03.954Z,37.99
2022-08-03T06:11:58.098Z,37.64
2022-08-03T06:16:51.631Z,38.06
2022-08-03T06:21:45.397Z,37.86
2022-08-03T06:26:40.659Z,38.29
2022-08-03T06:31:33.835Z,37.76
2022-08-03T06:36:31.612Z,38.06
2022-08-03T06:41:26.747Z,37.88
2022-08-03T06:46:20.697Z,37.61
2022-08-03T06:51:15.189Z,37.64
2022-08-03T06:56:10.008Z,38.20
2022-08-03T07:01:04.074Z,38.01
2022-08-03T07:05:57.241Z,37.98
2022-08-03T07:10:51.000Z,38.45
2022-08-03T07:15:55.508Z,38.67
2022-08-03T07:20:49.564Z,38.57
2022-08-03T07:25:43.851Z,38.61
2022-08-03T07:30:38.197Z,38.43
2022-08-03T07:35:32.218Z,38.70
2022-08-03T07:40:27.008Z,38.22
2022-08-03T07:45:26.551Z,38.40
2022-08-03T07:50:20.517Z,38.56
2022-08-03T07:55:18.138Z,38.54
2022-08-03T08:00:18.101Z,38.79
2022-08-03T08:05:11.395Z,38.88
2022-08-03T08:10:08.632Z,38.84
2022-08-03T08:15:02.389Z,39.02
2022-08-03T08:19:56.674Z,38.94
2022-08-03T08:24:51.764Z,38.85
2022-08-03T08:29:52.651Z,38.86
2022-08-03T08:34:49.971Z,38.40
2022-08-03T08:39:44.117Z,38.47
2022-08-03T08:44:38.232Z,38.33
2022-08-03T08:49:36.900Z,38.32
2022-08-03T08:54:32.952Z,38.29
2022-08-03T08:59:48.366Z,38.38
2022-08-03T09:04:43.192Z,38.23
2022-08-03T09:10:10.367Z,38.69
2022-08-03T09:15:07.812Z,38.02
2022-08-03T09:20:10.676Z,38.25
2022-08-03T09:25:24.482Z,38.17
2022-08-03T09:30:34.251Z,37.94
2022-08-03T09:35:51.583Z,38.53
2022-08-03T09:40:42.748Z,38.41
2022-08-03T09:45:40.064Z,37.97
2022-08-03T09:51:13.898Z,37.97
2022-08-03T09:56:34.378Z,37.66
2022-08-03T10:01:35.538Z,37.98
2022-08-03T10:06:29.621Z,37.58
2022-08-03T10:11:37.435Z,37.50
2022-08-03T10:16:41.887Z,36.98
2022-08-03T10:21:42.149Z,37.29
2022-08-03T10:26:39.865Z,38.13
2022-08-03T10:31:57.591Z,37.99
2022-08-03T10:36:56.337Z,37.81
2022-08-03T10:41:50.777Z,37.64
2022-08-03T10:46:45.501Z,37.69
2022-08-03T10:51:40.788Z,37.92
2022-08-03T10:56:51.709Z,37.79
2022-08-03T11:02:00.255Z,37.52
2022-08-03T11:07:21.728Z,37.69
2022-08-03T11:12:43.573Z,37.13
2022-08-03T11:17:46.758Z,37.54
2022-08-03T11:22:51.865Z,37.30
2022-08-03T11:28:12.423Z,37.68
2022-08-03T11:33:08.981Z,37.23
2022-08-03T11:38:07.709Z,37.49
2022-08-03T11:43:07.996Z,37.61
2022-08-03T11:48:14.680Z,36.82
2022-08-03T11:53:09.239Z,36.73
2022-08-03T11:59:02.756Z,36.33
2022-08-03T12:03:23.016Z,36.65
2022-08-03T12:08:20.091Z,35.62
2022-08-03T12:14:26.894Z,35.27
2022-08-03T12:18:27.329Z,34.81
2022-08-03T12:23:21.171Z,34.71
2022-08-03T12:28:35.998Z,34.37
2022-08-03T12:33:31.150Z,35.05
2022-08-03T12:38:25.368Z,33.59
2022-08-03T12:43:19.093Z,34.73
2022-08-03T12:48:13.371Z,33.60
2022-08-03T12:53:09.216Z,34.00
2022-08-03T12:58:07.541Z,34.15
2022-08-03T13:03:38.366Z,33.65
2022-08-03T13:08:24.139Z,34.39
2022-08-03T13:13:18.297Z,33.93
2022-08-03T13:18:12.242Z,35.08
2022-08-03T13:23:13.006Z,33.99
2022-08-03T13:28:17.361Z,34.82
2022-08-03T13:33:09.811Z,34.89
2022-08-03T13:38:03.603Z,34.98
2022-08-03T13:42:58.032Z,34.96
2022-08-03T13:47:51.419Z,35.47
2022-08-03T13:52:46.872Z,36.22
2022-08-03T13:58:03.614Z,35.98
2022-08-03T14:02:55.321Z,36.34
2022-08-03T14:07:53.013Z,36.24
2022-08-03T14:12:52.305Z,36.63
2022-08-03T14:17:49.852Z,36.28
2022-08-03T14:22:44.341Z,36.23
2022-08-03T14:27:41.435Z,36.27
2022-08-03T14:32:35.768Z,36.52
2022-08-03T14:37:30.446Z,36.60
2022-08-03T14:42:24.797Z,36.42
2022-08-03T14:47:22.034Z,36.48
2022-08-03T14:52:19.259Z,36.38
2022-08-03T14:57:17.129Z,36.58
2022-08-03T15:02:23.343Z,36.55
2022-08-03T15:07:23.033Z,36.44
2022-08-03T15:12:21.480Z,36.22
2022-08-03T15:17:20.863Z,36.15
2022-08-03T15:22:20.615Z,35.77
2022-08-03T15:27:30.085Z,36.19
2022-08-03T15:32:28.580Z,35.65
2022-08-03T15:37:27.078Z,35.94
2022-08-03T15:42:28.024Z,35.50
2022-08-03T15:47:27.779Z,36.24
2022-08-03T15:52:25.360Z,35.81
2022-08-03T15:57:19.081Z,35.94
2022-08-03T16:02:16.658Z,35.73
2022-08-03T16:07:16.839Z,35.89
2022-08-03T16:12:16.875Z,36.16
2022-08-03T16:17:16.707Z,36.47
2022-08-03T16:22:14.951Z,36.15
2022-08-03T16:27:37.419Z,36.42
2022-08-03T16:32:32.423Z,36.34
2022-08-03T16:37:38.576Z,36.35
2022-08-03T16:42:38.415Z,36.31
2022-08-03T16:47:34.538Z,36.31
2022-08-03T16:52:34.356Z,36.39
2022-08-03T16:57:58.903Z,36.09
2022-08-03T17:02:58.337Z,36.16
2022-08-03T17:07:56.689Z,36.16
2022-08-03T17:12:59.916Z,36.29
2022-08-03T17:18:09.513Z,36.14
2022-08-03T17:23:42.420Z,36.46
2022-08-03T17:28:50.106Z,36.25
2022-08-03T17:33:57.349Z,36.28
2022-08-03T17:38:59.204Z,36.50
2022-08-03T17:44:15.491Z,36.29
2022-08-03T17:49:25.187Z,36.44
2022-08-03T17:55:54.862Z,36.62
2022-08-03T18:00:36.675Z,36.75
2022-08-03T18:06:11.943Z,36.57
2022-08-03T18:11:14.876Z,36.58
2022-08-03T18:16:21.255Z,36.62
2022-08-03T18:21:20.408Z,36.72
2022-08-03T18:26:18.535Z,36.90
2022-08-03T18:32:00.299Z,37.02
2022-08-03T18:36:31.793Z,36.92
2022-08-03T18:41:32.325Z,36.88
2022-08-03T18:46:29.985Z,36.88
2022-08-03T18:51:43.313Z,37.20
2022-08-03T18:56:40.041Z,37.39
2022-08-03T19:01:59.160Z,37.39
2022-08-03T19:07:03.130Z,37.73
2022-08-03T19:12:30.687Z,37.30
2022-08-03T19:17:30.965Z,37.51
2022-08-03T19:22:27.325Z,37.50
2022-08-03T19:27:26.945Z,37.56
2022-08-03T19:32:22.320Z,37.14
2022-08-03T19:37:18.006Z,37.47
2022-08-03T19:42:23.079Z,37.47
2022-08-03T19:47:44.024Z,37.38
2022-08-03T19:52:39.136Z,37.39
2022-08-03T19:57:34.736Z,37.58
2022-08-03T20:02:29.758Z,37.50
2022-08-03T20:07:23.821Z,37.52
2022-08-03T20:12:19.534Z,37.63
2022-08-03T20:17:22.691Z,37.69
2022-08-03T20:22:39.332Z,37.41
2022-08-03T20:28:06.878Z,37.47
2022-08-03T20:32:53.498Z,37.37
2022-08-03T20:37:47.745Z,37.78
2022-08-03T20:42:39.991Z,37.66
2022-08-03T20:47:35.944Z,37.78
2022-08-03T20:52:33.569Z,37.41
2022-08-03T20:57:27.731Z,37.45
2022-08-03T21:02:29.766Z,37.67
2022-08-03T21:08:04.081Z,37.75
2022-08-03T21:13:14.914Z,37.49
2022-08-03T21:18:15.133Z,37.62
2022-08-03T21:23:12.161Z,37.44
2022-08-03T21:28:27.477Z,37.43
2022-08-03T21:33:22.365Z,37.26
2022-08-03T21:38:19.776Z,37.40
2022-08-03T21:43:13.857Z,37.26
2022-08-03T21:48:10.364Z,37.35
2022-08-03T21:53:04.609Z,37.43
2022-08-03T21:58:05.504Z,37.36
2022-08-03T22:03:15.233Z,37.29
2022-08-03T22:08:14.191Z,37.46
2022-08-03T22:13:07.839Z,37.28
2022-08-03T22:18:03.744Z,37.35
2022-08-03T22:23:02.327Z,37.34
2022-08-03T22:27:56.830Z,37.35
2022-08-03T22:32:53.494Z,37.08
2022-08-03T22:37:49.920Z,37.43
2022-08-03T22:42:47.777Z,37.23
2022-08-03T22:47:43.028Z,36.62
2022-08-03T22:52:38.616Z,36.38
2022-08-03T22:57:33.925Z,36.42
2022-08-03T23:02:30.137Z,36.34
2022-08-03T23:07:32.163Z,36.32
2022-08-03T23:12:26.680Z,36.62
2022-08-03T23:17:22.095Z,36.20
2022-08-03T23:22:29.429Z,36.50
2022-08-03T23:27:25.192Z,36.56
2022-08-03T23:32:21.331Z,36.44
2022-08-03T23:37:16.372Z,36.36
2022-08-03T23:42:12.147Z,36.28
2022-08-03T23:47:06.739Z,36.29
2022-08-03T23:52:29.144Z,36.16
2022-08-03T23:58:11.074Z,35.94
